createdAt,value
2017-10-12T00:01:26.609Z,3.70
2017-10-12T00:03:54.976Z,3.77
2017-10-12T00:06:23.368Z,4.00
2017-10-12T00:08:51.743Z,4.10
2017-10-12T00:11:20.126Z,3.50
2017-10-12T00:13:48.984Z,3.57
2017-10-12T00:16:17.348Z,3.50
2017-10-12T00:18:45.688Z,3.80
2017-10-12T00:21:15.638Z,4.30
2017-10-12T00:23:44.195Z,3.93
2017-10-12T00:26:13.373Z,3.50
2017-10-12T00:28:41.763Z,4.07
2017-10-12T00:31:10.127Z,3.33
2017-10-12T00:33:38.517Z,3.50
2017-10-12T00:36:07.002Z,2.90
2017-10-12T00:38:36.172Z,2.67
2017-10-12T00:41:04.568Z,3.27
2017-10-12T00:43:33.746Z,2.30
2017-10-12T00:46:02.139Z,3.00
2017-10-12T00:48:31.318Z,2.57
2017-10-12T00:51:00.355Z,2.63
2017-10-12T00:53:28.747Z,2.60
2017-10-12T00:55:57.119Z,2.63
2017-10-12T00:58:25.735Z,2.60
2017-10-12T01:00:54.131Z,2.40
2017-10-12T01:03:22.507Z,2.70
2017-10-12T01:05:50.919Z,3.17
2017-10-12T01:08:20.084Z,3.13
2017-10-12T01:10:48.439Z,3.27
2017-10-12T01:13:17.127Z,3.27
2017-10-12T01:15:45.731Z,2.73
2017-10-12T01:18:14.097Z,3.00
2017-10-12T01:20:42.694Z,3.00
2017-10-12T01:23:11.893Z,3.10
2017-10-12T01:25:40.488Z,3.10
2017-10-12T01:28:09.142Z,2.80
2017-10-12T01:30:37.545Z,3.17
2017-10-12T01:33:05.953Z,2.93
2017-10-12T01:35:35.161Z,2.27
2017-10-12T01:38:03.600Z,2.67
2017-10-12T01:40:32.213Z,3.43
2017-10-12T01:43:00.740Z,2.63
2017-10-12T01:45:29.133Z,2.33
2017-10-12T01:47:57.548Z,3.20
2017-10-12T01:50:25.976Z,3.23
2017-10-12T01:52:54.381Z,3.13
2017-10-12T01:55:22.737Z,3.60
2017-10-12T01:57:51.467Z,3.07
2017-10-12T02:00:19.852Z,3.63
2017-10-12T02:02:48.994Z,4.57
2017-10-12T02:05:17.789Z,3.10
2017-10-12T02:07:46.189Z,4.07
2017-10-12T02:10:14.545Z,5.00
2017-10-12T02:12:43.143Z,3.60
2017-10-12T02:15:11.531Z,4.57
2017-10-12T02:17:40.072Z,5.00
2017-10-12T02:20:08.787Z,4.80
2017-10-12T02:22:37.148Z,5.70
2017-10-12T02:25:05.618Z,4.90
2017-10-12T02:27:34.566Z,5.20
2017-10-12T02:30:02.979Z,4.90
2017-10-12T02:32:31.377Z,4.63
2017-10-12T02:34:59.771Z,4.90
2017-10-12T02:37:28.127Z,4.43
2017-10-12T02:39:56.488Z,5.33
2017-10-12T02:42:24.891Z,4.73
2017-10-12T02:44:53.243Z,4.80
2017-10-12T02:47:22.373Z,5.97
2017-10-12T02:49:52.418Z,5.83
2017-10-12T02:52:20.780Z,3.80
2017-10-12T02:54:49.472Z,4.57
2017-10-12T02:57:17.960Z,4.40
2017-10-12T02:59:46.352Z,5.40
2017-10-12T03:02:15.552Z,6.43
2017-10-12T03:04:44.091Z,6.67
2017-10-12T03:07:12.476Z,4.93
2017-10-12T03:09:40.847Z,5.57
2017-10-12T03:12:09.821Z,5.70
2017-10-12T03:14:38.233Z,5.00
2017-10-12T03:17:06.644Z,5.27
2017-10-12T03:19:35.105Z,5.47
2017-10-12T03:22:03.475Z,6.20
2017-10-12T03:24:31.896Z,5.70
2017-10-12T03:27:01.213Z,5.40
2017-10-12T03:29:29.929Z,6.20
2017-10-12T03:31:58.310Z,5.77
2017-10-12T03:34:26.925Z,4.33
2017-10-12T03:36:55.316Z,6.07
2017-10-12T03:39:24.477Z,5.80
2017-10-12T03:41:53.255Z,6.10
2017-10-12T03:44:21.899Z,5.97
2017-10-12T03:46:51.026Z,4.80
2017-10-12T03:49:19.513Z,4.23
2017-10-12T03:51:48.190Z,4.83
2017-10-12T03:54:16.573Z,4.60
2017-10-12T03:56:45.285Z,4.30
2017-10-12T03:59:13.664Z,4.20
2017-10-12T04:01:42.039Z,5.27
2017-10-12T04:04:10.631Z,4.60
2017-10-12T04:06:38.982Z,3.97
2017-10-12T04:09:07.638Z,5.23
2017-10-12T04:11:36.696Z,5.03
2017-10-12T04:14:05.097Z,5.07
2017-10-12T04:16:34.228Z,4.40
2017-10-12T04:19:02.624Z,4.23
2017-10-12T04:21:30.991Z,4.50
2017-10-12T04:23:59.379Z,4.03
2017-10-12T04:26:27.795Z,4.87
2017-10-12T04:28:56.248Z,3.80
2017-10-12T04:31:24.893Z,4.07
2017-10-12T04:33:53.505Z,3.53
2017-10-12T04:36:21.871Z,2.77
2017-10-12T04:38:50.232Z,3.70
2017-10-12T04:41:18.673Z,3.80
2017-10-12T04:43:47.040Z,3.87
2017-10-12T04:46:15.441Z,3.40
2017-10-12T04:48:43.895Z,4.20
2017-10-12T04:51:12.276Z,4.47
2017-10-12T04:53:41.424Z,4.20
2017-10-12T04:56:09.832Z,4.40
2017-10-12T04:58:38.256Z,3.67
2017-10-12T05:01:06.609Z,3.77
2017-10-12T05:03:34.993Z,3.60
2017-10-12T05:06:03.350Z,4.23
2017-10-12T05:08:31.708Z,4.03
2017-10-12T05:11:00.144Z,3.80
2017-10-12T05:13:28.507Z,4.03
2017-10-12T05:15:56.863Z,4.33
2017-10-12T05:18:25.446Z,4.33
2017-10-12T05:20:53.791Z,3.87
2017-10-12T05:23:22.199Z,3.80
2017-10-12T05:25:50.806Z,4.47
2017-10-12T05:28:19.212Z,4.47
2017-10-12T05:30:48.360Z,4.27
2017-10-12T05:33:17.148Z,4.90
2017-10-12T05:35:45.590Z,3.10
2017-10-12T05:38:14.797Z,3.77
2017-10-12T05:40:43.674Z,3.83
2017-10-12T05:43:12.062Z,3.67
2017-10-12T05:45:40.491Z,4.87
2017-10-12T05:48:09.439Z,4.23
2017-10-12T05:50:37.792Z,3.60
2017-10-12T05:53:06.364Z,4.83
2017-10-12T05:55:34.868Z,3.77
2017-10-12T05:58:04.638Z,3.70
2017-10-12T06:00:33.355Z,4.40
2017-10-12T06:03:02.549Z,4.20
2017-10-12T06:05:31.747Z,4.13
2017-10-12T06:08:00.353Z,4.33
2017-10-12T06:10:28.993Z,3.80
2017-10-12T06:12:57.409Z,4.50
2017-10-12T06:15:26.541Z,3.47
2017-10-12T06:17:54.950Z,3.27
2017-10-12T06:20:23.362Z,3.80
2017-10-12T06:22:51.746Z,3.70
2017-10-12T06:25:21.117Z,4.50
2017-10-12T06:27:49.504Z,4.03
2017-10-12T06:30:17.861Z,4.27
2017-10-12T06:32:46.384Z,3.53
2017-10-12T06:35:15.799Z,3.23
2017-10-12T06:37:44.213Z,3.60
2017-10-12T06:40:12.631Z,3.50
2017-10-12T06:42:41.059Z,4.40
2017-10-12T06:45:09.439Z,4.20
2017-10-12T06:47:37.929Z,4.40
2017-10-12T06:50:06.442Z,4.80
2017-10-12T06:52:34.841Z,3.80
2017-10-12T06:55:04.408Z,4.30
2017-10-12T06:57:34.659Z,3.83
2017-10-12T07:00:03.114Z,3.87
2017-10-12T07:02:39.074Z,4.57
2017-10-12T07:05:07.489Z,4.17
2017-10-12T07:07:36.621Z,3.63
2017-10-12T07:10:05.228Z,3.40
2017-10-12T07:12:35.414Z,3.23
2017-10-12T07:15:03.876Z,3.30
2017-10-12T07:17:35.830Z,3.40
2017-10-12T07:20:04.994Z,3.17
2017-10-12T07:22:34.323Z,3.57
2017-10-12T07:25:03.532Z,3.83
2017-10-12T07:27:35.426Z,3.10
2017-10-12T07:30:03.889Z,3.00
2017-10-12T07:32:36.330Z,2.47
2017-10-12T07:35:05.761Z,2.30
2017-10-12T07:37:44.849Z,2.20
2017-10-12T07:40:13.280Z,2.17
2017-10-12T07:42:41.693Z,2.27
2017-10-12T07:45:11.201Z,2.27
2017-10-12T07:47:40.420Z,2.43
2017-10-12T07:50:10.260Z,1.70
2017-10-12T07:52:38.710Z,2.40
2017-10-12T07:55:07.176Z,2.20
2017-10-12T07:57:35.544Z,1.97
2017-10-12T08:00:04.162Z,2.23
2017-10-12T08:02:39.375Z,1.87
2017-10-12T08:05:08.171Z,3.07
2017-10-12T08:07:36.566Z,1.80
2017-10-12T08:10:04.928Z,1.70
2017-10-12T08:12:35.323Z,2.50
2017-10-12T08:15:03.953Z,1.87
2017-10-12T08:17:34.327Z,1.73
2017-10-12T08:20:03.158Z,2.27
2017-10-12T08:22:34.346Z,2.10
2017-10-12T08:25:03.732Z,1.80
2017-10-12T08:27:35.592Z,2.07
2017-10-12T08:30:05.689Z,2.50
2017-10-12T08:32:34.869Z,3.20
2017-10-12T08:35:03.330Z,2.40
2017-10-12T08:37:39.146Z,2.60
2017-10-12T08:40:08.099Z,2.80
2017-10-12T08:42:37.361Z,3.27
2017-10-12T08:45:06.597Z,3.37
2017-10-12T08:47:35.113Z,3.33
2017-10-12T08:50:04.815Z,3.63
2017-10-12T08:52:37.387Z,3.20
2017-10-12T08:55:06.442Z,4.03
2017-10-12T08:57:34.855Z,2.97
2017-10-12T09:00:04.898Z,3.00
2017-10-12T09:02:35.246Z,3.43
2017-10-12T09:05:03.699Z,3.20
2017-10-12T09:07:35.945Z,3.60
2017-10-12T09:10:04.326Z,3.50
2017-10-12T09:12:39.761Z,3.40
2017-10-12T09:15:09.159Z,3.60
2017-10-12T09:17:38.346Z,3.30
2017-10-12T09:20:07.078Z,3.50
2017-10-12T09:22:36.228Z,3.30
2017-10-12T09:25:05.069Z,3.50
2017-10-12T09:27:36.257Z,3.50
2017-10-12T09:30:05.447Z,3.70
2017-10-12T09:32:35.728Z,4.40
2017-10-12T09:35:04.330Z,4.10
2017-10-12T09:37:39.395Z,3.73
2017-10-12T09:40:07.930Z,4.90
2017-10-12T09:42:37.871Z,4.30
2017-10-12T09:45:06.339Z,4.00
2017-10-12T09:47:34.870Z,5.00
2017-10-12T09:50:03.456Z,5.00
2017-10-12T09:52:34.948Z,4.50
2017-10-12T09:55:03.525Z,4.33
2017-10-12T09:57:34.704Z,4.23
2017-10-12T10:00:03.180Z,3.80
2017-10-12T10:02:35.669Z,4.03
2017-10-12T10:05:04.153Z,3.43
2017-10-12T10:07:34.149Z,3.60
2017-10-12T10:10:02.902Z,2.83
2017-10-12T10:12:35.908Z,3.50
2017-10-12T10:15:04.545Z,2.63
2017-10-12T10:17:35.726Z,3.20
2017-10-12T10:20:04.281Z,2.90
2017-10-12T10:22:35.918Z,3.03
2017-10-12T10:25:05.254Z,2.60
2017-10-12T10:27:34.443Z,2.60
2017-10-12T10:30:03.855Z,2.20
2017-10-12T10:32:34.847Z,2.67
2017-10-12T10:35:04.131Z,2.30
2017-10-12T10:37:38.560Z,2.93
2017-10-12T10:40:07.956Z,2.20
2017-10-12T10:42:36.333Z,3.37
2017-10-12T10:45:05.208Z,2.60
2017-10-12T10:47:36.583Z,2.83
2017-10-12T10:50:04.960Z,2.30
2017-10-12T10:52:35.319Z,2.43
2017-10-12T10:55:04.116Z,1.50
2017-10-12T10:57:34.473Z,1.90
2017-10-12T11:00:02.892Z,1.60
2017-10-12T11:02:37.653Z,1.53
2017-10-12T11:05:07.034Z,1.60
2017-10-12T11:07:35.440Z,1.70
2017-10-12T11:10:04.821Z,1.37
2017-10-12T11:12:34.055Z,1.00
2017-10-12T11:15:02.437Z,1.80
2017-10-12T11:17:30.854Z,1.50
2017-10-12T11:20:00.061Z,1.90
2017-10-12T11:22:28.443Z,1.97
2017-10-12T11:24:57.772Z,2.10
2017-10-12T11:27:26.922Z,2.00
2017-10-12T11:29:55.345Z,1.57
2017-10-12T11:32:24.739Z,2.23
2017-10-12T11:34:54.893Z,2.77
2017-10-12T11:37:23.253Z,2.10
2017-10-12T11:39:52.614Z,2.23
2017-10-12T11:42:21.004Z,2.40
2017-10-12T11:44:49.443Z,2.13
2017-10-12T11:47:18.612Z,1.70
2017-10-12T11:49:47.772Z,2.10
2017-10-12T11:52:16.156Z,1.40
2017-10-12T11:54:44.615Z,1.60
2017-10-12T11:57:14.486Z,1.80
2017-10-12T11:59:43.630Z,2.00
2017-10-12T12:02:16.123Z,1.30
2017-10-12T12:04:44.515Z,1.90
2017-10-12T12:07:13.738Z,1.40
2017-10-12T12:09:42.156Z,1.80
2017-10-12T12:12:11.229Z,1.47
2017-10-12T12:14:40.829Z,2.00
2017-10-12T12:17:10.464Z,1.60
2017-10-12T12:19:38.861Z,1.80
2017-10-12T12:22:07.234Z,1.67
2017-10-12T12:24:35.664Z,2.03
2017-10-12T12:27:04.122Z,1.20
2017-10-12T12:29:32.543Z,1.60
2017-10-12T12:32:01.060Z,1.33
2017-10-12T12:34:29.492Z,3.33
2017-10-12T12:36:58.574Z,1.20
2017-10-12T12:39:27.938Z,0.70
2017-10-12T12:41:56.336Z,1.00
2017-10-12T12:44:24.699Z,1.40
2017-10-12T12:46:53.333Z,1.33
2017-10-12T12:49:22.176Z,0.80
2017-10-12T12:51:50.568Z,1.53
2017-10-12T12:54:18.974Z,1.00
2017-10-12T12:56:47.374Z,1.10
2017-10-12T12:59:16.380Z,1.10
2017-10-12T13:01:44.954Z,1.10
2017-10-12T13:04:14.753Z,1.37
2017-10-12T13:06:43.231Z,2.10
2017-10-12T13:09:12.884Z,1.03
2017-10-12T13:11:42.923Z,1.40
2017-10-12T13:14:12.333Z,1.37
2017-10-12T13:16:41.585Z,1.87
2017-10-12T13:19:10.080Z,1.60
2017-10-12T13:21:39.532Z,2.33
2017-10-12T13:24:09.554Z,1.30
2017-10-12T13:26:37.940Z,0.80
2017-10-12T13:29:06.704Z,4.10
2017-10-12T13:31:35.870Z,1.67
2017-10-12T13:34:04.334Z,1.40
2017-10-12T13:36:33.427Z,1.30
2017-10-12T13:39:02.578Z,0.60
2017-10-12T13:41:33.531Z,1.30
2017-10-12T13:44:02.032Z,1.50
2017-10-12T13:46:30.467Z,1.30
2017-10-12T13:48:59.857Z,1.10
2017-10-12T13:51:29.624Z,1.00
2017-10-12T13:53:58.045Z,1.20
2017-10-12T13:56:26.613Z,1.20
2017-10-12T13:58:55.239Z,3.80
2017-10-12T14:01:24.429Z,2.00
2017-10-12T14:03:53.066Z,1.73
2017-10-12T14:06:21.528Z,2.00
2017-10-12T14:08:50.749Z,1.50
2017-10-12T14:11:19.373Z,2.30
2017-10-12T14:13:48.574Z,1.20
2017-10-12T14:16:17.721Z,1.60
2017-10-12T14:18:46.199Z,1.80
2017-10-12T14:21:14.640Z,1.23
2017-10-12T14:23:43.015Z,2.20
2017-10-12T14:26:12.390Z,2.20
2017-10-12T14:28:40.830Z,2.03
2017-10-12T14:31:10.156Z,1.57
2017-10-12T14:33:39.160Z,1.90
2017-10-12T14:36:07.579Z,1.90
2017-10-12T14:38:35.992Z,1.63
2017-10-12T14:41:04.415Z,2.13
2017-10-12T14:43:33.638Z,1.63
2017-10-12T14:46:02.694Z,2.30
2017-10-12T14:48:31.389Z,1.73
2017-10-12T14:50:59.879Z,1.27
2017-10-12T14:53:29.216Z,1.50
2017-10-12T14:55:57.864Z,1.47
2017-10-12T14:58:26.995Z,1.60
2017-10-12T15:00:56.187Z,1.60
2017-10-12T15:03:24.741Z,1.90
2017-10-12T15:05:53.154Z,1.47
2017-10-12T15:08:21.608Z,2.17
2017-10-12T15:10:50.141Z,2.00
2017-10-12T15:13:18.635Z,2.13
2017-10-12T15:15:47.000Z,2.47
2017-10-12T15:18:15.408Z,2.40
2017-10-12T15:20:45.100Z,1.63
2017-10-12T15:23:13.836Z,1.57
2017-10-12T15:25:42.513Z,1.90
2017-10-12T15:28:12.390Z,2.57
2017-10-12T15:30:40.870Z,2.10
2017-10-12T15:33:09.481Z,1.60
2017-10-12T15:35:38.664Z,1.50
2017-10-12T15:38:07.156Z,1.97
2017-10-12T15:40:35.639Z,1.70
2017-10-12T15:43:04.807Z,1.90
2017-10-12T15:45:33.294Z,2.33
2017-10-12T15:48:02.198Z,2.30
2017-10-12T15:50:30.590Z,2.20
2017-10-12T15:52:59.738Z,2.73
2017-10-12T15:55:28.491Z,1.50
2017-10-12T15:57:56.900Z,2.03
2017-10-12T16:00:25.292Z,2.00
2017-10-12T16:02:53.694Z,1.80
2017-10-12T16:05:22.100Z,3.10
2017-10-12T16:07:51.419Z,2.77
2017-10-12T16:10:20.018Z,2.20
2017-10-12T16:12:48.402Z,2.30
2017-10-12T16:15:16.843Z,2.90
2017-10-12T16:17:46.099Z,2.07
2017-10-12T16:20:14.520Z,2.30
2017-10-12T16:22:58.693Z,2.40
2017-10-12T16:25:12.360Z,2.40
2017-10-12T16:27:40.716Z,2.80
2017-10-12T16:30:09.117Z,2.03
2017-10-12T16:33:07.119Z,2.07
2017-10-12T16:37:34.425Z,2.60
2017-10-12T16:40:02.993Z,3.37
2017-10-12T16:42:31.366Z,2.00
2017-10-12T16:45:00.612Z,1.83
2017-10-12T16:47:29.438Z,2.70
2017-10-12T16:49:58.693Z,5.00
2017-10-12T16:52:27.320Z,3.50
2017-10-12T16:54:56.632Z,4.40
2017-10-12T16:57:25.282Z,3.73
2017-10-12T16:59:53.745Z,3.20
2017-10-12T17:02:22.301Z,5.20
2017-10-12T17:04:50.711Z,4.63
2017-10-12T17:07:19.090Z,3.10
2017-10-12T17:09:47.508Z,3.73
2017-10-12T17:12:16.925Z,3.10
2017-10-12T17:14:46.191Z,3.60
2017-10-12T17:17:14.641Z,3.70
2017-10-12T17:19:43.072Z,3.50
2017-10-12T17:22:12.542Z,3.20
2017-10-12T17:24:41.039Z,3.90
2017-10-12T17:27:09.503Z,4.90
2017-10-12T17:29:37.883Z,3.90
2017-10-12T17:32:06.386Z,3.43
2017-10-12T17:34:34.784Z,3.43
2017-10-12T17:37:03.223Z,3.87
2017-10-12T17:39:32.031Z,3.97
2017-10-12T17:42:01.217Z,4.20
2017-10-12T17:44:29.586Z,4.20
2017-10-12T17:46:58.125Z,3.97
2017-10-12T17:49:26.570Z,3.87
2017-10-12T17:51:55.025Z,3.67
2017-10-12T17:54:38.377Z,4.70
2017-10-12T17:56:51.914Z,5.53
2017-10-12T17:59:20.533Z,5.30
2017-10-12T18:01:49.130Z,6.30
2017-10-12T18:06:45.932Z,5.17
2017-10-12T18:09:14.385Z,4.50
2017-10-12T18:11:42.757Z,5.23
2017-10-12T18:14:11.212Z,5.60
2017-10-12T18:16:39.648Z,6.33
2017-10-12T18:19:08.040Z,10.80
2017-10-12T18:21:36.402Z,8.83
2017-10-12T18:24:04.976Z,7.07
2017-10-12T18:26:33.380Z,5.43
2017-10-12T18:29:02.521Z,4.43
2017-10-12T18:31:30.911Z,5.10
2017-10-12T18:33:59.340Z,6.20
2017-10-12T18:36:27.713Z,6.40
2017-10-12T18:38:56.166Z,6.57
2017-10-12T18:41:24.542Z,5.73
2017-10-12T18:43:52.909Z,5.97
2017-10-12T18:46:21.303Z,5.27
2017-10-12T18:48:49.685Z,6.73
2017-10-12T18:51:18.190Z,5.00
2017-10-12T18:53:46.623Z,6.10
2017-10-12T18:56:15.042Z,5.90
2017-10-12T18:58:43.411Z,5.90
2017-10-12T19:01:12.378Z,5.60
2017-10-12T19:03:40.758Z,5.63
2017-10-12T19:06:09.113Z,4.30
2017-10-12T19:08:37.867Z,5.80
2017-10-12T19:11:06.264Z,6.43
2017-10-12T19:13:35.398Z,6.83
2017-10-12T19:16:04.095Z,6.30
2017-10-12T19:18:32.485Z,6.33
2017-10-12T19:21:00.872Z,5.90
2017-10-12T19:23:29.265Z,7.33
2017-10-12T19:25:57.628Z,6.33
2017-10-12T19:28:41.004Z,8.00
2017-10-12T19:30:54.584Z,6.20
2017-10-12T19:33:23.053Z,6.67
2017-10-12T19:35:52.098Z,6.07
2017-10-12T19:38:20.631Z,6.30
2017-10-12T19:43:17.750Z,5.53
2017-10-12T19:45:46.754Z,6.60
2017-10-12T19:48:15.261Z,6.27
2017-10-12T19:50:43.807Z,6.90
2017-10-12T19:53:12.382Z,6.43
2017-10-12T19:55:40.847Z,6.83
2017-10-12T19:58:10.042Z,6.53
2017-10-12T20:00:38.728Z,6.10
2017-10-12T20:03:07.512Z,6.77
2017-10-12T20:05:36.016Z,5.80
2017-10-12T20:08:05.355Z,5.60
2017-10-12T20:10:33.812Z,7.13
2017-10-12T20:13:02.303Z,6.27
2017-10-12T20:15:30.768Z,6.90
2017-10-12T20:17:59.232Z,6.17
2017-10-12T20:20:28.433Z,6.10
2017-10-12T20:22:57.888Z,5.87
2017-10-12T20:25:26.368Z,5.63
2017-10-12T20:27:55.806Z,5.83
2017-10-12T20:30:24.639Z,6.10
2017-10-12T20:32:53.143Z,5.40
2017-10-12T20:35:21.686Z,5.90
2017-10-12T20:37:50.326Z,5.83
2017-10-12T20:40:18.840Z,5.37
2017-10-12T20:42:48.190Z,7.17
2017-10-12T20:45:16.802Z,5.87
2017-10-12T20:47:45.301Z,6.53
2017-10-12T20:50:14.608Z,5.40
2017-10-12T20:52:43.459Z,5.53
2017-10-12T20:55:12.162Z,6.33
2017-10-12T20:57:40.706Z,7.10
2017-10-12T21:00:09.605Z,5.73
2017-10-12T21:02:53.028Z,6.00
2017-10-12T21:05:06.931Z,6.30
2017-10-12T21:07:35.632Z,6.20
2017-10-12T21:10:04.164Z,5.00
2017-10-12T21:12:32.674Z,6.57
2017-10-12T21:15:01.417Z,6.70
2017-10-12T21:17:30.703Z,5.80
2017-10-12T21:19:59.292Z,6.30
2017-10-12T21:22:27.858Z,5.60
2017-10-12T21:24:56.347Z,4.90
2017-10-12T21:27:24.876Z,5.73
2017-10-12T21:29:54.207Z,5.10
2017-10-12T21:32:22.894Z,5.83
2017-10-12T21:34:51.457Z,4.97
2017-10-12T21:37:20.328Z,4.93
2017-10-12T21:39:49.634Z,6.40
2017-10-12T21:42:18.906Z,5.97
2017-10-12T21:44:47.862Z,6.93
2017-10-12T21:47:16.596Z,5.10
2017-10-12T21:49:45.329Z,5.23
2017-10-12T21:52:14.353Z,7.13
2017-10-12T21:54:43.106Z,5.30
2017-10-12T21:57:12.046Z,5.50
2017-10-12T21:59:42.326Z,5.30
2017-10-12T22:02:11.022Z,5.60
2017-10-12T22:04:39.758Z,6.07
2017-10-12T22:07:09.195Z,6.23
2017-10-12T22:09:38.125Z,5.60
2017-10-12T22:12:06.855Z,5.17
2017-10-12T22:14:36.702Z,5.77
2017-10-12T22:17:05.428Z,5.50
2017-10-12T22:19:34.157Z,5.63
2017-10-12T22:22:03.308Z,5.93
2017-10-12T22:24:32.044Z,4.80
2017-10-12T22:27:00.786Z,6.07
2017-10-12T22:29:29.665Z,4.57
2017-10-12T22:31:58.377Z,5.63
2017-10-12T22:34:28.177Z,5.40
2017-10-12T22:36:57.177Z,5.20
2017-10-12T22:39:26.710Z,7.50
2017-10-12T22:41:56.386Z,5.47
2017-10-12T22:44:25.219Z,6.50
2017-10-12T22:46:54.261Z,6.20
2017-10-12T22:49:23.017Z,5.30
2017-10-12T22:51:51.941Z,6.53
2017-10-12T22:54:20.643Z,5.57
2017-10-12T22:56:49.430Z,6.10
2017-10-12T22:59:18.478Z,5.33
2017-10-12T23:01:47.198Z,5.77
2017-10-12T23:04:15.940Z,5.60
2017-10-12T23:06:44.773Z,6.33
2017-10-12T23:09:14.840Z,6.10
2017-10-12T23:11:43.774Z,6.93
2017-10-12T23:14:12.607Z,5.97
2017-10-12T23:16:41.373Z,6.40
2017-10-12T23:19:10.158Z,6.23
2017-10-12T23:21:39.260Z,6.27
2017-10-12T23:24:08.122Z,5.03
2017-10-12T23:26:36.884Z,5.77
2017-10-12T23:29:05.717Z,5.47
2017-10-12T23:31:35.364Z,4.27
2017-10-12T23:34:04.112Z,5.30
2017-10-12T23:36:40.145Z,6.30
2017-10-12T23:39:08.867Z,5.40
2017-10-12T23:41:37.588Z,6.10
2017-10-12T23:44:06.542Z,4.70
2017-10-12T23:46:36.156Z,3.90
2017-10-12T23:49:05.209Z,5.30
2017-10-12T23:51:36.276Z,4.80
2017-10-12T23:54:04.980Z,5.50
2017-10-12T23:56:35.452Z,4.47
2017-10-12T23:59:04.251Z,5.67
